Weather at Augsburg Airport

Public forecast

Using degrees Celsius for public forecast. Weather courtesy of forecast.io.

Current aviation weather report (METAR) for Augsburg Airport

Retrieved 2021/01/26 10:20 UTC (27 minutes ago):

EDMA 261020Z 25017KT 9999 -SN FEW015 SCT032 OVC073 M01/M03 Q1016

Aviation forecast (TAF) for Augsburg Airport

Forecast is more than 12 hours old.

Retrieved 2009/12/02 06:00 UTC (11 years ago):

TAF COR EDMA 020600Z 0206/0220 VRB03KT 3000 BR SCT004 PROB40 TEMPO 0206/0208 0600 FG VV002 BECMG 0208/0210 9999